Map

Track Data

SID SEASON NUMBER BASIN SUBBASIN NAME ISO_TIME NATURE LAT LON WMO_WIND WMO_PRES WMO_AGENCY TRACK_TYPE DIST2LAND LANDFALL IFLAG USA_AGENCY USA_ATCF_ID USA_LAT USA_LON USA_RECORD USA_STATUS USA_WIND USA_PRES USA_SSHS USA_R34_NE USA_R34_SE USA_R34_SW USA_R34_NW USA_R50_NE USA_R50_SE USA_R50_SW USA_R50_NW USA_R64_NE USA_R64_SE USA_R64_SW USA_R64_NW USA_POCI USA_ROCI USA_RMW USA_EYE TOKYO_LAT TOKYO_LON TOKYO_GRADE TOKYO_WIND TOKYO_PRES TOKYO_R50_DIR TOKYO_R50_LONG TOKYO_R50_SHORT TOKYO_R30_DIR TOKYO_R30_LONG TOKYO_R30_SHORT TOKYO_LAND CMA_LAT CMA_LON CMA_CAT CMA_WIND CMA_PRES HKO_LAT HKO_LON HKO_CAT HKO_WIND HKO_PRES NEWDELHI_LAT NEWDELHI_LON NEWDELHI_GRADE NEWDELHI_WIND NEWDELHI_PRES NEWDELHI_CI NEWDELHI_DP NEWDELHI_POCI REUNION_LAT REUNION_LON REUNION_TYPE REUNION_WIND REUNION_PRES REUNION_TNUM REUNION_CI REUNION_RMW REUNION_R34_NE REUNION_R34_SE REUNION_R34_SW REUNION_R34_NW REUNION_R50_NE REUNION_R50_SE REUNION_R50_SW REUNION_R50_NW REUNION_R64_NE REUNION_R64_SE REUNION_R64_SW REUNION_R64_NW BOM_LAT BOM_LON BOM_TYPE BOM_WIND BOM_PRES BOM_TNUM BOM_CI BOM_RMW BOM_R34_NE BOM_R34_SE BOM_R34_SW BOM_R34_NW BOM_R50_NE BOM_R50_SE BOM_R50_SW BOM_R50_NW BOM_R64_NE BOM_R64_SE BOM_R64_SW BOM_R64_NW BOM_ROCI BOM_POCI BOM_EYE BOM_POS_METHOD BOM_PRES_METHOD NADI_LAT NADI_LON NADI_CAT NADI_WIND NADI_PRES WELLINGTON_LAT WELLINGTON_LON WELLINGTON_WIND WELLINGTON_PRES DS824_LAT DS824_LON DS824_STAGE DS824_WIND DS824_PRES TD9636_LAT TD9636_LON TD9636_STAGE TD9636_WIND TD9636_PRES TD9635_LAT TD9635_LON TD9635_WIND TD9635_PRES TD9635_ROCI NEUMANN_LAT NEUMANN_LON NEUMANN_CLASS NEUMANN_WIND NEUMANN_PRES MLC_LAT MLC_LON MLC_CLASS MLC_WIND MLC_PRES USA_GUST BOM_GUST BOM_GUST_PER REUNION_GUST REUNION_GUST_PER USA_SEAHGT USA_SEARAD_NE USA_SEARAD_SE USA_SEARAD_SW USA_SEARAD_NW STORM_SPEED STORM_DIR
2001304N12237 2001 88 EP MM OCTAVE 2001-10-31 00:00:00 TS 12.1000 -122.800 30 1007 hurdat_epa main 1804 1804 O_____________ hurdat_epa EP172001 12.1000 -122.800 TD 30 1007 -1 12 289
2001304N12237 2001 88 EP MM OCTAVE 2001-10-31 03:00:00 TS 12.2878 -123.372 main 1826 1826 P_____________ EP172001 12.2878 -123.372 TD 32 1006 -1 11 290
2001304N12237 2001 88 EP MM OCTAVE 2001-10-31 06:00:00 TS 12.5000 -123.900 35 1005 hurdat_epa main 1844 1842 O_____________ hurdat_epa EP172001 12.5000 -123.900 TS 35 1005 0 11 296
2001304N12237 2001 88 EP MM OCTAVE 2001-10-31 09:00:00 TS 12.7498 -124.358 main 1863 1854 P_____________ EP172001 12.7498 -124.358 TS 35 1004 0 10 300
2001304N12237 2001 88 EP MM OCTAVE 2001-10-31 12:00:00 TS 13.0000 -124.800 35 1004 hurdat_epa main 1868 1867 O_____________ hurdat_epa EP172001 13.0000 -124.800 TS 35 1004 0 10 296
2001304N12237 2001 88 EP MM OCTAVE 2001-10-31 15:00:00 TS 13.1849 -125.293 main 1889 1889 P_____________ EP172001 13.1849 -125.293 TS 37 1003 0 11 292
2001304N12237 2001 88 EP MM OCTAVE 2001-10-31 18:00:00 TS 13.4000 -125.800 40 1002 hurdat_epa main 1912 1912 O_____________ hurdat_epa EP172001 13.4000 -125.800 TS 40 1002 0 11 299
2001304N12237 2001 88 EP MM OCTAVE 2001-10-31 21:00:00 TS 13.7424 -126.307 main 1929 1921 P_____________ EP172001 13.7424 -126.307 TS 45 999 0 12 306
2001304N12237 2001 88 EP MM OCTAVE 2001-11-01 00:00:00 TS 14.1000 -126.800 50 997 hurdat_epa main 1940 1940 O_____________ hurdat_epa EP172001 14.1000 -126.800 TS 50 997 0 11 303
2001304N12237 2001 88 EP MM OCTAVE 2001-11-01 03:00:00 TS 14.3650 -127.288 main 1956 1956 P_____________ EP172001 14.3650 -127.288 TS 50 997 0 10 300
2001304N12237 2001 88 EP MM OCTAVE 2001-11-01 06:00:00 TS 14.6000 -127.700 50 997 hurdat_epa main 1966 1963 O_____________ hurdat_epa EP172001 14.6000 -127.700 TS 50 997 0 8 304
2001304N12237 2001 88 EP MM OCTAVE 2001-11-01 09:00:00 TS 14.8349 -128.003 main 1970 1959 P_____________ EP172001 14.8349 -128.003 TS 52 995 0 7 316
2001304N12237 2001 88 EP MM OCTAVE 2001-11-01 12:00:00 TS 15.1000 -128.200 55 994 hurdat_epa main 1959 1941 O_____________ hurdat_epa EP172001 15.1000 -128.200 TS 55 994 0 7 333
2001304N12237 2001 88 EP MM OCTAVE 2001-11-01 15:00:00 TS 15.4350 -128.323 main 1941 1916 P_____________ EP172001 15.4350 -128.323 TS 60 990 0 7 345
2001304N12237 2001 88 EP MM OCTAVE 2001-11-01 18:00:00 TS 15.8000 -128.400 65 987 hurdat_epa main 1916 1899 O_____________ hurdat_epa EP172001 15.8000 -128.400 HU 65 987 1 8 347
2001304N12237 2001 88 EP MM OCTAVE 2001-11-01 21:00:00 TS 16.1650 -128.500 main 1891 1875 P_____________ EP172001 16.1650 -128.500 HU 70 983 1 7 345
2001304N12237 2001 88 EP MM OCTAVE 2001-11-02 00:00:00 TS 16.5000 -128.600 75 980 hurdat_epa main 1875 1860 O_____________ hurdat_epa EP172001 16.5000 -128.600 HU 75 980 1 6 344
2001304N12237 2001 88 EP MM OCTAVE 2001-11-02 03:00:00 TS 16.7650 -128.685 main 1860 1852 P_____________ EP172001 16.7650 -128.685 HU 75 980 1 5 339
2001304N12237 2001 88 EP MM OCTAVE 2001-11-02 06:00:00 TS 17.0000 -128.800 75 980 hurdat_epa main 1852 1845 O_____________ hurdat_epa EP172001 17.0000 -128.800 HU 75 980 1 6 329
2001304N12237 2001 88 EP MM OCTAVE 2001-11-02 09:00:00 TS 17.2575 -128.992 main 1846 1846 P_____________ EP172001 17.2575 -128.992 HU 70 982 1 6 323
2001304N12237 2001 88 EP MM OCTAVE 2001-11-02 12:00:00 TS 17.5000 -129.200 65 985 hurdat_epa main 1847 1840 O_____________ hurdat_epa EP172001 17.5000 -129.200 HU 65 985 1 75 50 25 50 1008 150 25 6 325
2001304N12237 2001 88 EP MM OCTAVE 2001-11-02 15:00:00 TS 17.7074 -129.328 main 1841 1841 P_____________ EP172001 17.7074 -129.328 HU 62 987 0 5 325
2001304N12237 2001 88 EP MM OCTAVE 2001-11-02 18:00:00 TS 17.9000 -129.500 60 989 hurdat_epa main 1843 1843 O_____________ hurdat_epa EP172001 17.9000 -129.500 TS 60 989 0 6 311
2001304N12237 2001 88 EP MM OCTAVE 2001-11-02 21:00:00 TS 18.1150 -129.812 main 1854 1854 P_____________ EP172001 18.1150 -129.812 TS 52 993 0 8 301
2001304N12237 2001 88 EP MM OCTAVE 2001-11-03 00:00:00 TS 18.3000 -130.200 45 997 hurdat_epa main 1873 1873 O_____________ hurdat_epa EP172001 18.3000 -130.200 TS 45 997 0 50 50 25 25 1008 150 30 8 292
2001304N12237 2001 88 EP MM OCTAVE 2001-11-03 03:00:00 TS 18.4150 -130.593 main 1901 1901 P_____________ EP172001 18.4150 -130.593 TS 40 1000 0 8 285
2001304N12237 2001 88 EP MM OCTAVE 2001-11-03 06:00:00 TS 18.5000 -131.000 35 1004 hurdat_epa main 1929 1929 O_____________ hurdat_epa EP172001 18.5000 -131.000 TS 35 1004 0 8 284
2001304N12237 2001 88 EP MM OCTAVE 2001-11-03 09:00:00 TS 18.6075 -131.407 main 1957 1957 P_____________ EP172001 18.6075 -131.407 TS 32 1004 -1 8 285
2001304N12237 2001 88 EP MM OCTAVE 2001-11-03 12:00:00 TS 18.7000 -131.800 30 1005 hurdat_epa main 1986 1986 O_____________ hurdat_epa EP172001 18.7000 -131.800 TD 30 1005 -1 7 282
2001304N12237 2001 88 EP MM OCTAVE 2001-11-03 15:00:00 TS 18.7601 -132.160 main 2015 2015 P_____________ EP172001 18.7601 -132.160 TD 30 1007 -1 7 279
2001304N12237 2001 88 EP MM OCTAVE 2001-11-03 18:00:00 TS 18.8000 -132.500 30 1009 hurdat_epa main 2041 O_____________ hurdat_epa EP172001 18.8000 -132.500 TD 30 1009 -1 6 277

About IBTrACS Database

This database is a web-friendly format of International Best Track Archive for Climate Stewardship (IBTrACS), a global best track data archive curated by NOAA dating back to 1842.

Updated: 2021-10-25